sensor_id;sensor_type;location;lat;lon;timestamp;P1;durP1;ratioP1;P2;durP2;ratioP2
23594;SDS011;11975;47.674;9.472;2023-03-11T03:47:33;25.15;;;23.75;;
23594;SDS011;11975;47.674;9.472;2023-03-11T03:50:00;25.08;;;23.67;;
23594;SDS011;11975;47.674;9.472;2023-03-11T03:52:27;25.42;;;24.02;;
23594;SDS011;11975;47.674;9.472;2023-03-11T03:54:53;25.38;;;23.98;;
23594;SDS011;11975;47.674;9.472;2023-03-11T03:57:19;25.05;;;23.65;;
23594;SDS011;11975;47.674;9.472;2023-03-11T03:59:45;24.90;;;23.50;;
23594;SDS011;11975;47.674;9.472;2023-03-11T04:02:11;24.42;;;23.02;;
23594;SDS011;11975;47.674;9.472;2023-03-11T04:04:37;24.63;;;23.23;;
23594;SDS011;11975;47.674;9.472;2023-03-11T04:07:03;24.08;;;22.77;;
23594;SDS011;11975;47.674;9.472;2023-03-11T04:09:30;24.27;;;22.88;;
23594;SDS011;11975;47.674;9.472;2023-03-11T04:11:57;24.13;;;22.83;;
23594;SDS011;11975;47.674;9.472;2023-03-11T04:14:24;24.17;;;22.88;;
23594;SDS011;11975;47.674;9.472;2023-03-11T04:16:50;23.50;;;22.20;;
23594;SDS011;11975;47.674;9.472;2023-03-11T04:19:16;23.27;;;21.98;;
23594;SDS011;11975;47.674;9.472;2023-03-11T04:21:42;24.23;;;22.27;;
23594;SDS011;11975;47.674;9.472;2023-03-11T04:24:08;22.83;;;21.52;;
23594;SDS011;11975;47.674;9.472;2023-03-11T04:26:34;23.23;;;21.92;;
23594;SDS011;11975;47.674;9.472;2023-03-11T04:29:00;22.77;;;21.48;;
23594;SDS011;11975;47.674;9.472;2023-03-11T04:31:26;23.40;;;22.10;;
23594;SDS011;11975;47.674;9.472;2023-03-11T04:33:51;23.52;;;22.17;;
23594;SDS011;11975;47.674;9.472;2023-03-11T04:36:19;23.35;;;22.05;;
23594;SDS011;11975;47.674;9.472;2023-03-11T04:38:45;22.83;;;21.52;;
23594;SDS011;11975;47.674;9.472;2023-03-11T04:41:11;23.08;;;21.77;;
23594;SDS011;11975;47.674;9.472;2023-03-11T04:43:37;22.50;;;21.30;;
23594;SDS011;11975;47.674;9.472;2023-03-11T04:46:03;22.85;;;21.55;;
23594;SDS011;11975;47.674;9.472;2023-03-11T04:48:29;22.85;;;21.55;;
23594;SDS011;11975;47.674;9.472;2023-03-11T04:50:55;23.58;;;22.08;;
23594;SDS011;11975;47.674;9.472;2023-03-11T04:53:21;22.30;;;21.10;;
23594;SDS011;11975;47.674;9.472;2023-03-11T04:55:48;23.05;;;21.75;;
23594;SDS011;11975;47.674;9.472;2023-03-11T04:58:15;22.65;;;21.35;;
23594;SDS011;11975;47.674;9.472;2023-03-11T05:00:41;22.75;;;21.45;;
23594;SDS011;11975;47.674;9.472;2023-03-11T05:03:06;22.83;;;21.52;;
23594;SDS011;11975;47.674;9.472;2023-03-11T05:05:32;23.45;;;22.15;;
23594;SDS011;11975;47.674;9.472;2023-03-11T05:07:59;23.63;;;22.33;;
23594;SDS011;11975;47.674;9.472;2023-03-11T05:10:25;23.40;;;22.10;;
23594;SDS011;11975;47.674;9.472;2023-03-11T05:12:51;23.20;;;21.90;;
23594;SDS011;11975;47.674;9.472;2023-03-11T05:15:17;23.30;;;22.00;;
23594;SDS011;11975;47.674;9.472;2023-03-11T05:17:44;23.52;;;22.23;;
23594;SDS011;11975;47.674;9.472;2023-03-11T05:20:10;23.13;;;21.83;;
23594;SDS011;11975;47.674;9.472;2023-03-11T05:22:36;23.50;;;22.20;;
23594;SDS011;11975;47.674;9.472;2023-03-11T05:25:03;23.23;;;21.92;;
23594;SDS011;11975;47.674;9.472;2023-03-11T05:27:29;23.70;;;22.40;;
23594;SDS011;11975;47.674;9.472;2023-03-11T05:29:55;23.00;;;21.70;;
23594;SDS011;11975;47.674;9.472;2023-03-11T05:32:21;23.42;;;22.13;;
23594;SDS011;11975;47.674;9.472;2023-03-11T05:34:47;23.67;;;22.38;;
23594;SDS011;11975;47.674;9.472;2023-03-11T05:37:13;23.60;;;22.30;;
23594;SDS011;11975;47.674;9.472;2023-03-11T05:39:39;23.65;;;22.35;;
23594;SDS011;11975;47.674;9.472;2023-03-11T05:42:06;24.25;;;22.88;;
23594;SDS011;11975;47.674;9.472;2023-03-11T05:44:32;25.25;;;23.85;;
23594;SDS011;11975;47.674;9.472;2023-03-11T17:23:33;26.30;;;24.80;;
23594;SDS011;11975;47.674;9.472;2023-03-11T17:25:59;25.38;;;23.98;;
23594;SDS011;11975;47.674;9.472;2023-03-11T17:28:26;25.38;;;23.98;;
23594;SDS011;11975;47.674;9.472;2023-03-11T17:30:51;26.13;;;24.08;;
23594;SDS011;11975;47.674;9.472;2023-03-11T17:33:17;24.40;;;23.00;;
23594;SDS011;11975;47.674;9.472;2023-03-11T17:35:43;23.75;;;22.45;;
23594;SDS011;11975;47.674;9.472;2023-03-11T17:38:10;24.02;;;22.73;;
23594;SDS011;11975;47.674;9.472;2023-03-11T17:40:36;23.70;;;22.40;;
23594;SDS011;11975;47.674;9.472;2023-03-11T17:43:02;24.30;;;22.90;;
23594;SDS011;11975;47.674;9.472;2023-03-11T17:45:28;23.98;;;22.58;;
23594;SDS011;11975;47.674;9.472;2023-03-11T17:47:54;24.15;;;22.83;;
23594;SDS011;11975;47.674;9.472;2023-03-11T17:50:20;24.77;;;23.38;;
23594;SDS011;11975;47.674;9.472;2023-03-11T17:52:46;24.80;;;23.30;;
23594;SDS011;11975;47.674;9.472;2023-03-11T17:55:12;24.67;;;23.27;;
23594;SDS011;11975;47.674;9.472;2023-03-11T17:57:38;24.90;;;23.50;;
23594;SDS011;11975;47.674;9.472;2023-03-11T18:00:04;25.63;;;24.17;;
23594;SDS011;11975;47.674;9.472;2023-03-11T18:02:32;26.42;;;24.95;;
23594;SDS011;11975;47.674;9.472;2023-03-11T18:04:58;27.25;;;25.70;;
23594;SDS011;11975;47.674;9.472;2023-03-11T18:07:24;28.15;;;26.55;;
23594;SDS011;11975;47.674;9.472;2023-03-11T18:09:53;28.25;;;26.67;;
23594;SDS011;11975;47.674;9.472;2023-03-11T18:12:19;30.25;;;28.50;;
23594;SDS011;11975;47.674;9.472;2023-03-11T18:14:45;30.15;;;28.42;;
23594;SDS011;11975;47.674;9.472;2023-03-11T18:17:11;29.73;;;28.05;;
23594;SDS011;11975;47.674;9.472;2023-03-11T18:19:37;30.45;;;28.67;;
23594;SDS011;11975;47.674;9.472;2023-03-11T18:22:03;29.77;;;28.02;;
23594;SDS011;11975;47.674;9.472;2023-03-11T18:24:29;30.55;;;28.75;;
23594;SDS011;11975;47.674;9.472;2023-03-11T18:26:55;30.13;;;28.42;;
23594;SDS011;11975;47.674;9.472;2023-03-11T18:29:21;30.80;;;29.02;;
23594;SDS011;11975;47.674;9.472;2023-03-11T18:31:47;30.90;;;29.10;;
23594;SDS011;11975;47.674;9.472;2023-03-11T18:34:13;30.90;;;29.02;;
23594;SDS011;11975;47.674;9.472;2023-03-11T18:36:40;30.45;;;28.67;;
23594;SDS011;11975;47.674;9.472;2023-03-11T18:39:06;30.85;;;29.05;;
23594;SDS011;11975;47.674;9.472;2023-03-11T18:41:36;30.63;;;28.90;;
23594;SDS011;11975;47.674;9.472;2023-03-11T18:44:03;31.55;;;28.65;;
23594;SDS011;11975;47.674;9.472;2023-03-11T18:46:29;29.80;;;28.13;;
23594;SDS011;11975;47.674;9.472;2023-03-11T18:48:56;30.45;;;28.75;;
23594;SDS011;11975;47.674;9.472;2023-03-11T18:51:23;31.60;;;29.80;;
23594;SDS011;11975;47.674;9.472;2023-03-11T18:53:49;32.15;;;30.33;;
23594;SDS011;11975;47.674;9.472;2023-03-11T18:56:16;31.25;;;29.48;;
23594;SDS011;11975;47.674;9.472;2023-03-11T18:58:42;31.67;;;29.87;;
23594;SDS011;11975;47.674;9.472;2023-03-11T19:01:09;30.30;;;28.58;;
23594;SDS011;11975;47.674;9.472;2023-03-11T19:03:43;29.65;;;27.98;;
23594;SDS011;11975;47.674;9.472;2023-03-11T19:06:11;29.17;;;27.48;;
23594;SDS011;11975;47.674;9.472;2023-03-11T19:11:06;24.77;;;23.40;;
23594;SDS011;11975;47.674;9.472;2023-03-11T19:13:33;26.00;;;24.50;;
23594;SDS011;11975;47.674;9.472;2023-03-11T19:16:01;26.40;;;24.90;;
23594;SDS011;11975;47.674;9.472;2023-03-11T19:18:27;25.23;;;23.77;;
23594;SDS011;11975;47.674;9.472;2023-03-11T19:20:57;25.17;;;23.48;;
23594;SDS011;11975;47.674;9.472;2023-03-11T19:23:23;24.90;;;23.50;;
23594;SDS011;11975;47.674;9.472;2023-03-11T19:25:50;25.13;;;23.63;;
23594;SDS011;11975;47.674;9.472;2023-03-11T19:28:16;24.63;;;23.23;;
23594;SDS011;11975;47.674;9.472;2023-03-11T19:30:42;24.77;;;23.35;;
23594;SDS011;11975;47.674;9.472;2023-03-11T19:33:08;23.92;;;22.60;;
23594;SDS011;11975;47.674;9.472;2023-03-11T19:35:34;24.00;;;22.70;;
23594;SDS011;11975;47.674;9.472;2023-03-11T19:38:01;24.80;;;23.40;;
23594;SDS011;11975;47.674;9.472;2023-03-11T19:40:27;24.05;;;22.65;;
23594;SDS011;11975;47.674;9.472;2023-03-11T19:42:55;24.90;;;23.40;;
23594;SDS011;11975;47.674;9.472;2023-03-11T19:45:22;24.05;;;22.65;;
23594;SDS011;11975;47.674;9.472;2023-03-11T19:47:48;23.42;;;22.13;;
23594;SDS011;11975;47.674;9.472;2023-03-11T19:50:16;24.60;;;23.20;;
23594;SDS011;11975;47.674;9.472;2023-03-11T19:52:43;24.38;;;22.98;;
23594;SDS011;11975;47.674;9.472;2023-03-11T19:55:09;24.05;;;22.70;;
23594;SDS011;11975;47.674;9.472;2023-03-11T19:57:35;24.50;;;23.10;;
23594;SDS011;11975;47.674;9.472;2023-03-11T20:00:02;23.98;;;22.65;;
23594;SDS011;11975;47.674;9.472;2023-03-11T20:02:29;24.23;;;22.83;;
23594;SDS011;11975;47.674;9.472;2023-03-11T20:04:55;24.27;;;22.88;;
23594;SDS011;11975;47.674;9.472;2023-03-11T20:07:21;23.88;;;22.58;;
23594;SDS011;11975;47.674;9.472;2023-03-11T20:09:46;24.38;;;22.98;;
23594;SDS011;11975;47.674;9.472;2023-03-11T20:12:12;25.35;;;23.92;;
23594;SDS011;11975;47.674;9.472;2023-03-11T20:14:39;23.85;;;22.55;;
23594;SDS011;11975;47.674;9.472;2023-03-11T20:17:05;24.33;;;22.95;;
23594;SDS011;11975;47.674;9.472;2023-03-11T20:19:32;24.02;;;22.70;;
23594;SDS011;11975;47.674;9.472;2023-03-11T20:21:58;24.40;;;22.90;;
23594;SDS011;11975;47.674;9.472;2023-03-11T20:24:24;24.35;;;22.95;;
23594;SDS011;11975;47.674;9.472;2023-03-11T20:26:51;24.63;;;23.23;;
23594;SDS011;11975;47.674;9.472;2023-03-11T20:29:17;23.98;;;22.67;;
23594;SDS011;11975;47.674;9.472;2023-03-11T20:31:43;24.73;;;23.27;;
23594;SDS011;11975;47.674;9.472;2023-03-11T20:34:10;23.55;;;22.25;;
23594;SDS011;11975;47.674;9.472;2023-03-11T20:36:36;25.02;;;23.63;;
23594;SDS011;11975;47.674;9.472;2023-03-11T20:39:02;24.17;;;22.77;;
23594;SDS011;11975;47.674;9.472;2023-03-11T20:41:32;23.52;;;22.23;;
23594;SDS011;11975;47.674;9.472;2023-03-11T20:44:00;24.25;;;22.85;;
23594;SDS011;11975;47.674;9.472;2023-03-11T20:46:26;24.10;;;22.70;;
23594;SDS011;11975;47.674;9.472;2023-03-11T20:48:52;24.88;;;23.48;;
23594;SDS011;11975;47.674;9.472;2023-03-11T20:51:18;25.15;;;23.65;;
23594;SDS011;11975;47.674;9.472;2023-03-11T20:53:45;25.40;;;23.92;;
23594;SDS011;11975;47.674;9.472;2023-03-11T20:56:13;25.80;;;24.30;;
23594;SDS011;11975;47.674;9.472;2023-03-11T20:58:41;25.08;;;23.67;;
23594;SDS011;11975;47.674;9.472;2023-03-11T21:01:16;24.08;;;22.75;;
23594;SDS011;11975;47.674;9.472;2023-03-11T21:03:43;24.75;;;23.35;;
23594;SDS011;11975;47.674;9.472;2023-03-11T21:06:43;24.42;;;23.02;;
23594;SDS011;11975;47.674;9.472;2023-03-11T21:09:04;24.15;;;22.80;;
23594;SDS011;11975;47.674;9.472;2023-03-11T21:11:31;24.17;;;22.80;;
23594;SDS011;11975;47.674;9.472;2023-03-11T21:13:57;24.55;;;23.15;;
23594;SDS011;11975;47.674;9.472;2023-03-11T21:16:23;25.33;;;23.83;;
23594;SDS011;11975;47.674;9.472;2023-03-11T21:18:51;25.15;;;23.75;;
23594;SDS011;11975;47.674;9.472;2023-03-11T21:21:17;24.40;;;23.00;;
23594;SDS011;11975;47.674;9.472;2023-03-11T21:23:43;26.00;;;24.45;;
23594;SDS011;11975;47.674;9.472;2023-03-11T21:26:11;26.27;;;24.70;;
23594;SDS011;11975;47.674;9.472;2023-03-11T21:28:38;24.80;;;23.38;;
23594;SDS011;11975;47.674;9.472;2023-03-11T21:31:23;25.25;;;23.83;;
23594;SDS011;11975;47.674;9.472;2023-03-11T21:33:53;25.13;;;23.73;;
23594;SDS011;11975;47.674;9.472;2023-03-11T21:36:20;25.08;;;23.58;;
23594;SDS011;11975;47.674;9.472;2023-03-11T21:38:47;24.00;;;22.70;;
23594;SDS011;11975;47.674;9.472;2023-03-11T21:41:14;25.17;;;23.70;;
23594;SDS011;11975;47.674;9.472;2023-03-11T21:43:40;25.73;;;24.15;;
23594;SDS011;11975;47.674;9.472;2023-03-11T21:46:06;25.70;;;24.17;;
23594;SDS011;11975;47.674;9.472;2023-03-11T21:48:33;26.00;;;24.42;;
23594;SDS011;11975;47.674;9.472;2023-03-11T21:50:59;24.48;;;23.08;;
23594;SDS011;11975;47.674;9.472;2023-03-11T21:53:26;25.03;;;23.63;;
23594;SDS011;11975;47.674;9.472;2023-03-11T21:55:52;24.52;;;23.13;;
23594;SDS011;11975;47.674;9.472;2023-03-11T21:58:18;26.02;;;24.52;;
23594;SDS011;11975;47.674;9.472;2023-03-11T22:00:44;25.92;;;24.45;;
23594;SDS011;11975;47.674;9.472;2023-03-11T22:03:10;24.90;;;23.50;;
23594;SDS011;11975;47.674;9.472;2023-03-11T22:05:36;24.73;;;23.33;;
23594;SDS011;11975;47.674;9.472;2023-03-11T22:08:02;25.52;;;24.02;;
23594;SDS011;11975;47.674;9.472;2023-03-11T22:10:29;24.88;;;23.38;;
23594;SDS011;11975;47.674;9.472;2023-03-11T22:12:55;24.80;;;23.40;;
23594;SDS011;11975;47.674;9.472;2023-03-11T22:15:21;25.75;;;24.25;;
23594;SDS011;11975;47.674;9.472;2023-03-11T22:17:47;25.80;;;24.30;;
23594;SDS011;11975;47.674;9.472;2023-03-11T22:20:13;25.10;;;23.60;;
23594;SDS011;11975;47.674;9.472;2023-03-11T22:22:39;25.80;;;24.27;;
23594;SDS011;11975;47.674;9.472;2023-03-11T22:25:05;24.40;;;23.00;;
23594;SDS011;11975;47.674;9.472;2023-03-11T22:27:32;24.83;;;23.42;;
23594;SDS011;11975;47.674;9.472;2023-03-11T22:29:57;23.85;;;22.45;;
23594;SDS011;11975;47.674;9.472;2023-03-11T22:32:23;25.52;;;23.92;;
23594;SDS011;11975;47.674;9.472;2023-03-11T22:34:49;23.80;;;22.50;;
23594;SDS011;11975;47.674;9.472;2023-03-11T22:37:15;24.75;;;23.35;;
23594;SDS011;11975;47.674;9.472;2023-03-11T22:39:41;24.73;;;23.33;;
23594;SDS011;11975;47.674;9.472;2023-03-11T22:42:08;25.50;;;24.00;;
23594;SDS011;11975;47.674;9.472;2023-03-11T22:44:34;25.08;;;23.67;;
23594;SDS011;11975;47.674;9.472;2023-03-11T22:47:00;24.40;;;23.00;;
23594;SDS011;11975;47.674;9.472;2023-03-11T22:49:25;25.35;;;23.35;;
23594;SDS011;11975;47.674;9.472;2023-03-11T22:51:51;24.48;;;23.02;;
23594;SDS011;11975;47.674;9.472;2023-03-11T22:54:17;25.85;;;24.25;;
23594;SDS011;11975;47.674;9.472;2023-03-11T22:56:43;25.17;;;23.67;;
23594;SDS011;11975;47.674;9.472;2023-03-11T22:59:09;25.00;;;23.60;;
23594;SDS011;11975;47.674;9.472;2023-03-11T23:01:35;24.35;;;22.95;;
23594;SDS011;11975;47.674;9.472;2023-03-11T23:04:01;23.75;;;22.45;;
23594;SDS011;11975;47.674;9.472;2023-03-11T23:06:27;24.75;;;23.35;;
23594;SDS011;11975;47.674;9.472;2023-03-11T23:08:53;24.70;;;23.30;;
23594;SDS011;11975;47.674;9.472;2023-03-11T23:11:20;25.67;;;24.17;;
23594;SDS011;11975;47.674;9.472;2023-03-11T23:13:47;24.15;;;22.80;;
23594;SDS011;11975;47.674;9.472;2023-03-11T23:16:18;26.15;;;23.80;;
23594;SDS011;11975;47.674;9.472;2023-03-11T23:18:46;24.58;;;23.17;;
